createdAt,value
2023-05-20T00:00:25.678Z,3.72
2023-05-20T00:02:53.518Z,3.90
2023-05-20T00:05:21.344Z,3.60
2023-05-20T00:07:49.177Z,4.10
2023-05-20T00:10:17.205Z,4.40
2023-05-20T00:12:45.077Z,3.90
2023-05-20T00:15:14.329Z,4.13
2023-05-20T00:17:42.494Z,4.25
2023-05-20T00:20:11.156Z,3.88
2023-05-20T00:22:38.879Z,4.50
2023-05-20T00:25:07.129Z,3.65
2023-05-20T00:27:34.844Z,4.30
2023-05-20T00:30:02.587Z,4.72
2023-05-20T00:32:31.755Z,3.65
2023-05-20T00:35:00.885Z,3.60
2023-05-20T00:37:28.658Z,4.07
2023-05-20T00:39:56.649Z,4.00
2023-05-20T00:42:25.693Z,3.75
2023-05-20T00:44:53.738Z,4.03
2023-05-20T00:47:23.089Z,4.45
2023-05-20T00:49:52.992Z,4.20
2023-05-20T00:52:21.293Z,4.50
2023-05-20T00:54:50.409Z,3.90
2023-05-20T00:57:20.291Z,4.22
2023-05-20T00:59:48.137Z,3.83
2023-05-20T01:02:16.023Z,3.50
2023-05-20T01:04:47.202Z,4.03
2023-05-20T01:07:18.347Z,4.30
2023-05-20T01:09:46.568Z,3.92
2023-05-20T01:12:19.170Z,4.70
2023-05-20T01:14:50.756Z,4.72
2023-05-20T01:17:22.209Z,3.87
2023-05-20T01:19:50.240Z,4.28
2023-05-20T01:22:20.297Z,4.10
2023-05-20T01:24:49.734Z,3.88
2023-05-20T01:27:20.575Z,3.95
2023-05-20T01:29:50.505Z,3.60
2023-05-20T01:32:21.236Z,4.13
2023-05-20T01:34:51.048Z,4.18
2023-05-20T01:37:20.378Z,4.20
2023-05-20T01:39:51.130Z,3.30
2023-05-20T01:42:21.090Z,3.90
2023-05-20T01:44:49.529Z,4.07
2023-05-20T01:47:17.312Z,3.72
2023-05-20T01:49:46.207Z,4.18
2023-05-20T01:52:14.353Z,4.03
2023-05-20T01:54:42.263Z,4.43
2023-05-20T01:57:12.073Z,3.88
2023-05-20T01:59:39.980Z,4.60
2023-05-20T02:02:07.911Z,4.28
2023-05-20T02:04:36.740Z,4.00
2023-05-20T02:07:04.987Z,3.97
2023-05-20T02:09:32.822Z,3.92
2023-05-20T02:12:00.656Z,4.00
2023-05-20T02:14:29.778Z,4.32
2023-05-20T02:16:57.796Z,4.10
2023-05-20T02:19:26.065Z,3.80
2023-05-20T02:21:54.021Z,3.63
2023-05-20T02:24:21.915Z,3.92
2023-05-20T02:26:51.214Z,4.00
2023-05-20T02:29:19.997Z,4.25
2023-05-20T02:31:49.188Z,4.50
2023-05-20T02:34:17.043Z,4.55
2023-05-20T02:36:45.536Z,4.43
2023-05-20T02:39:13.546Z,4.03
2023-05-20T02:41:41.314Z,3.92
2023-05-20T02:44:10.639Z,3.77
2023-05-20T02:46:38.553Z,4.43
2023-05-20T02:49:07.670Z,4.15
2023-05-20T02:51:35.766Z,4.63
2023-05-20T02:54:03.785Z,3.95
2023-05-20T02:56:32.565Z,4.03
2023-05-20T02:59:03.608Z,4.07
2023-05-20T03:01:33.837Z,4.15
2023-05-20T03:04:01.933Z,4.10
2023-05-20T03:06:31.777Z,3.95
2023-05-20T03:08:59.857Z,4.43
2023-05-20T03:11:27.903Z,5.10
2023-05-20T03:13:55.670Z,3.75
2023-05-20T03:16:25.097Z,3.80
2023-05-20T03:18:54.553Z,4.15
2023-05-20T03:21:23.927Z,3.97
2023-05-20T03:23:53.413Z,4.13
2023-05-20T03:26:21.305Z,4.10
2023-05-20T03:28:49.215Z,4.65
2023-05-20T03:31:19.216Z,3.88
2023-05-20T03:33:47.197Z,4.10
2023-05-20T03:36:15.493Z,4.43
2023-05-20T03:38:43.316Z,3.75
2023-05-20T03:41:12.630Z,4.38
2023-05-20T03:43:40.957Z,4.03
2023-05-20T03:46:09.166Z,4.37
2023-05-20T03:48:37.385Z,3.80
2023-05-20T03:51:05.717Z,4.57
2023-05-20T03:53:33.809Z,4.00
2023-05-20T03:56:01.793Z,4.57
2023-05-20T03:58:32.241Z,3.53
2023-05-20T04:01:00.169Z,4.22
2023-05-20T04:03:28.950Z,4.40
2023-05-20T04:05:57.021Z,3.90
2023-05-20T04:08:25.822Z,4.25
2023-05-20T04:10:57.196Z,4.03
2023-05-20T04:13:26.368Z,4.40
2023-05-20T04:15:56.115Z,4.05
2023-05-20T04:18:24.174Z,3.83
2023-05-20T04:20:55.897Z,4.13
2023-05-20T04:23:23.839Z,3.80
2023-05-20T04:25:51.754Z,4.20
2023-05-20T04:28:19.552Z,4.50
2023-05-20T04:30:47.510Z,4.15
2023-05-20T04:33:18.477Z,3.92
2023-05-20T04:35:48.538Z,4.03
2023-05-20T04:38:16.850Z,3.72
2023-05-20T04:40:44.648Z,4.50
2023-05-20T04:43:12.982Z,3.95
2023-05-20T04:45:41.328Z,4.35
2023-05-20T04:48:09.705Z,4.00
2023-05-20T04:50:39.884Z,3.95
2023-05-20T04:53:08.803Z,4.28
2023-05-20T04:55:37.349Z,4.22
2023-05-20T04:58:05.768Z,4.40
2023-05-20T05:00:33.708Z,3.93
2023-05-20T05:03:02.923Z,4.05
2023-05-20T05:05:30.774Z,3.85
2023-05-20T05:08:00.167Z,4.32
2023-05-20T05:10:29.504Z,3.95
2023-05-20T05:12:57.485Z,3.73
2023-05-20T05:15:25.943Z,4.32
2023-05-20T05:17:53.920Z,4.13
2023-05-20T05:20:21.756Z,4.10
2023-05-20T05:22:50.697Z,3.63
2023-05-20T05:25:20.036Z,4.03
2023-05-20T05:27:49.246Z,3.90
2023-05-20T05:30:17.960Z,3.85
2023-05-20T05:32:46.078Z,4.28
2023-05-20T05:35:13.968Z,4.10
2023-05-20T05:37:41.822Z,3.60
2023-05-20T05:40:10.835Z,4.03
2023-05-20T05:42:40.476Z,3.70
2023-05-20T05:45:10.489Z,3.20
2023-05-20T05:47:38.410Z,3.60
2023-05-20T05:50:06.906Z,3.10
2023-05-20T05:52:36.929Z,3.65
2023-05-20T05:55:07.284Z,3.58
2023-05-20T05:57:35.861Z,3.33
2023-05-20T06:00:06.574Z,3.35
2023-05-20T06:02:46.119Z,3.20
2023-05-20T06:05:21.453Z,3.25
2023-05-20T06:07:49.661Z,3.10
2023-05-20T06:10:17.481Z,3.28
2023-05-20T06:12:46.237Z,3.25
2023-05-20T06:15:16.228Z,3.40
2023-05-20T06:17:44.412Z,3.63
2023-05-20T06:20:13.621Z,3.35
2023-05-20T06:22:41.451Z,2.97
2023-05-20T06:25:10.941Z,3.03
2023-05-20T06:27:38.808Z,2.63
2023-05-20T06:30:10.673Z,2.75
2023-05-20T06:32:40.275Z,3.00
2023-05-20T06:35:08.893Z,2.90
2023-05-20T06:37:37.094Z,2.83
2023-05-20T06:40:06.501Z,2.67
2023-05-20T06:42:35.403Z,3.17
2023-05-20T06:45:05.419Z,2.70
2023-05-20T06:47:37.794Z,2.85
2023-05-20T06:50:08.085Z,2.70
2023-05-20T06:52:36.792Z,2.60
2023-05-20T06:55:05.427Z,3.08
2023-05-20T06:57:35.191Z,2.70
2023-05-20T07:00:03.703Z,2.50
2023-05-20T07:02:34.588Z,2.80
2023-05-20T07:05:02.716Z,2.50
2023-05-20T07:07:31.837Z,2.65
2023-05-20T07:09:59.925Z,2.72
2023-05-20T07:12:27.996Z,2.63
2023-05-20T07:14:55.872Z,2.40
2023-05-20T07:17:24.847Z,2.67
2023-05-20T07:19:52.934Z,2.65
2023-05-20T07:22:21.183Z,2.45
2023-05-20T07:25:10.618Z,2.55
2023-05-20T07:27:39.093Z,2.17
2023-05-20T07:30:08.635Z,2.67
2023-05-20T07:32:37.901Z,2.30
2023-05-20T07:35:07.740Z,2.35
2023-05-20T07:37:35.994Z,2.60
2023-05-20T07:40:05.481Z,2.13
2023-05-20T07:42:35.144Z,2.40
2023-05-20T07:45:03.183Z,2.22
2023-05-20T07:47:32.887Z,2.00
2023-05-20T07:50:01.376Z,2.10
2023-05-20T07:52:35.660Z,2.17
2023-05-20T07:55:12.358Z,2.17
2023-05-20T07:57:43.587Z,2.50
2023-05-20T08:00:13.542Z,2.20
2023-05-20T08:02:44.936Z,2.33
2023-05-20T08:05:17.883Z,2.13
2023-05-20T08:07:46.996Z,2.07
2023-05-20T08:10:16.547Z,2.00
2023-05-20T08:12:48.083Z,2.15
2023-05-20T08:15:16.051Z,2.17
2023-05-20T08:17:43.947Z,2.25
2023-05-20T08:20:13.690Z,2.17
2023-05-20T08:22:41.635Z,1.80
2023-05-20T08:25:10.717Z,2.17
2023-05-20T08:27:38.610Z,1.83
2023-05-20T08:30:10.367Z,2.33
2023-05-20T08:32:38.444Z,2.20
2023-05-20T08:35:08.341Z,2.00
2023-05-20T08:37:36.612Z,2.05
2023-05-20T08:40:06.500Z,2.00
2023-05-20T08:42:34.617Z,2.10
2023-05-20T08:45:04.014Z,2.33
2023-05-20T08:47:34.355Z,2.40
2023-05-20T08:50:02.167Z,2.55
2023-05-20T08:52:34.626Z,2.22
2023-05-20T08:55:04.080Z,2.22
2023-05-20T08:57:33.928Z,2.07
2023-05-20T09:00:01.736Z,2.20
2023-05-20T09:02:29.675Z,2.28
2023-05-20T09:04:59.262Z,2.20
2023-05-20T09:07:30.276Z,1.98
2023-05-20T09:09:58.489Z,2.17
2023-05-20T09:12:26.298Z,1.90
2023-05-20T09:14:54.173Z,1.90
2023-05-20T09:17:22.565Z,1.80
2023-05-20T09:19:51.605Z,1.88
2023-05-20T09:22:24.986Z,1.70
2023-05-20T09:24:53.229Z,1.45
2023-05-20T09:27:21.850Z,1.80
2023-05-20T09:29:49.857Z,1.63
2023-05-20T09:32:18.133Z,1.58
2023-05-20T09:34:47.689Z,1.70
2023-05-20T09:37:19.020Z,1.58
2023-05-20T09:39:57.991Z,1.52
2023-05-20T09:42:29.135Z,1.33
2023-05-20T09:44:58.017Z,1.50
2023-05-20T09:47:27.546Z,1.70
2023-05-20T09:49:56.597Z,1.20
2023-05-20T09:52:24.835Z,1.30
2023-05-20T09:54:56.335Z,1.33
2023-05-20T09:57:24.576Z,1.25
2023-05-20T09:59:53.729Z,1.10
2023-05-20T10:02:21.929Z,1.00
2023-05-20T10:04:52.556Z,1.00
2023-05-20T10:07:42.400Z,1.10
2023-05-20T10:10:25.174Z,1.20
2023-05-20T10:13:01.293Z,1.10
2023-05-20T10:15:35.597Z,1.15
2023-05-20T10:18:12.434Z,1.20
2023-05-20T10:20:47.875Z,1.33
2023-05-20T10:23:23.562Z,1.20
2023-05-20T10:25:54.248Z,1.00
2023-05-20T10:28:32.977Z,1.23
2023-05-20T10:31:01.523Z,1.15
2023-05-20T10:33:30.204Z,1.10
2023-05-20T10:36:00.021Z,1.20
2023-05-20T10:38:27.798Z,1.03
2023-05-20T10:40:57.333Z,1.10
2023-05-20T10:43:29.253Z,0.93
2023-05-20T10:45:59.414Z,1.25
2023-05-20T10:48:29.187Z,1.15
2023-05-20T10:50:58.184Z,1.53
2023-05-20T10:53:33.551Z,1.10
2023-05-20T10:56:04.073Z,1.42
2023-05-20T10:58:38.969Z,1.77
2023-05-20T11:01:06.931Z,1.70
2023-05-20T11:03:36.460Z,1.70
2023-05-20T11:06:12.550Z,1.60
2023-05-20T11:08:40.521Z,1.40
2023-05-20T11:11:11.489Z,1.27
2023-05-20T11:13:39.523Z,1.70
2023-05-20T11:16:07.834Z,1.60
2023-05-20T11:18:35.755Z,1.60
2023-05-20T11:21:03.851Z,1.35
2023-05-20T11:23:31.867Z,1.60
2023-05-20T11:25:59.730Z,1.65
2023-05-20T11:28:28.868Z,1.50
2023-05-20T11:30:56.726Z,1.65
2023-05-20T11:33:27.731Z,1.73
2023-05-20T11:35:55.892Z,1.67
2023-05-20T11:38:23.713Z,1.63
2023-05-20T11:40:54.739Z,1.80
2023-05-20T11:43:24.196Z,1.73
2023-05-20T11:45:56.601Z,1.90
2023-05-20T11:48:25.132Z,1.63
2023-05-20T11:50:55.719Z,1.50
2023-05-20T11:53:24.862Z,1.80
2023-05-20T11:55:54.478Z,1.50
2023-05-20T11:58:24.991Z,2.10
2023-05-20T12:00:59.441Z,1.60
2023-05-20T12:03:31.862Z,1.80
2023-05-20T12:06:02.069Z,1.73
2023-05-20T12:08:30.091Z,1.65
2023-05-20T12:10:57.909Z,1.85
2023-05-20T12:13:25.688Z,1.75
2023-05-20T12:15:53.523Z,1.60
2023-05-20T12:18:21.350Z,2.20
2023-05-20T12:20:50.590Z,2.00
2023-05-20T12:23:18.550Z,2.22
2023-05-20T12:25:47.284Z,1.95
2023-05-20T12:28:15.326Z,1.95
2023-05-20T12:30:43.797Z,2.10
2023-05-20T12:33:11.779Z,1.90
2023-05-20T12:35:41.148Z,1.92
2023-05-20T12:38:11.126Z,1.80
2023-05-20T12:40:39.198Z,2.00
2023-05-20T12:43:07.525Z,1.80
2023-05-20T12:45:35.485Z,1.70
2023-05-20T12:48:03.526Z,2.10
2023-05-20T12:50:32.577Z,2.00
2023-05-20T12:53:00.469Z,1.92
2023-05-20T12:55:29.604Z,1.90
2023-05-20T12:57:57.424Z,1.88
2023-05-20T13:00:25.230Z,2.00
2023-05-20T13:02:53.185Z,1.70
2023-05-20T13:05:21.586Z,1.70
2023-05-20T13:07:49.973Z,1.70
2023-05-20T13:10:18.267Z,2.08
2023-05-20T13:12:47.421Z,1.80
2023-05-20T13:15:15.539Z,1.80
2023-05-20T13:17:43.637Z,2.10
2023-05-20T13:20:12.313Z,1.83
2023-05-20T13:22:40.224Z,2.30
2023-05-20T13:25:09.074Z,2.00
2023-05-20T13:27:36.993Z,1.98
2023-05-20T13:30:07.305Z,2.38
2023-05-20T13:32:35.194Z,2.30
2023-05-20T13:35:03.010Z,2.42
2023-05-20T13:37:31.027Z,2.05
2023-05-20T13:39:58.773Z,2.25
2023-05-20T13:42:26.669Z,2.35
2023-05-20T13:44:54.486Z,2.77
2023-05-20T13:47:23.745Z,2.22
2023-05-20T13:49:51.869Z,2.40
2023-05-20T13:52:19.650Z,2.40
2023-05-20T13:54:48.737Z,2.90
2023-05-20T13:57:16.563Z,2.50
2023-05-20T13:59:44.406Z,2.50
2023-05-20T14:02:12.242Z,2.40
2023-05-20T14:04:44.918Z,2.50
2023-05-20T14:07:12.893Z,2.17
2023-05-20T14:09:40.736Z,2.40
2023-05-20T14:12:09.173Z,2.38
2023-05-20T14:14:37.086Z,2.38
2023-05-20T14:17:05.506Z,2.40
2023-05-20T14:19:33.468Z,2.67
2023-05-20T14:22:03.326Z,2.10
2023-05-20T14:24:31.133Z,2.40
2023-05-20T14:26:59.054Z,2.42
2023-05-20T14:29:26.799Z,2.30
2023-05-20T14:31:54.773Z,2.70
2023-05-20T14:34:22.687Z,2.40
2023-05-20T14:36:50.565Z,2.65
2023-05-20T14:39:19.799Z,2.30
2023-05-20T14:41:47.509Z,2.53
2023-05-20T14:44:15.496Z,2.30
2023-05-20T14:46:43.618Z,2.40
2023-05-20T14:49:11.428Z,2.63
2023-05-20T14:51:39.316Z,2.30
2023-05-20T14:54:08.856Z,2.63
2023-05-20T14:56:38.283Z,2.50
2023-05-20T14:59:06.071Z,2.60
2023-05-20T15:01:34.071Z,2.25
2023-05-20T15:04:02.044Z,2.60
2023-05-20T15:06:30.601Z,2.60
2023-05-20T15:08:58.655Z,2.58
2023-05-20T15:11:26.600Z,2.60
2023-05-20T15:13:55.836Z,3.00
2023-05-20T15:16:25.055Z,3.00
2023-05-20T15:18:53.345Z,2.83
2023-05-20T15:21:21.434Z,2.20
2023-05-20T15:23:49.264Z,2.80
2023-05-20T15:26:17.468Z,4.22
2023-05-20T15:28:45.665Z,4.15
2023-05-20T15:31:14.770Z,3.58
2023-05-20T15:33:42.703Z,2.50
2023-05-20T15:36:10.716Z,2.70
2023-05-20T15:38:38.524Z,2.95
2023-05-20T15:41:06.563Z,2.60
2023-05-20T15:43:34.664Z,2.75
2023-05-20T15:46:03.178Z,2.67
2023-05-20T15:48:34.728Z,3.00
2023-05-20T15:51:02.644Z,2.80
2023-05-20T15:53:30.543Z,2.90
2023-05-20T15:55:58.424Z,2.95
2023-05-20T15:58:26.297Z,2.97
2023-05-20T16:00:54.079Z,2.90
2023-05-20T16:03:22.173Z,2.60
2023-05-20T16:05:51.484Z,2.42
2023-05-20T16:08:20.826Z,2.60
2023-05-20T16:10:48.723Z,2.80
2023-05-20T16:13:16.837Z,2.60
2023-05-20T16:15:44.741Z,2.58
2023-05-20T16:18:12.626Z,2.50
2023-05-20T16:20:40.721Z,2.55
2023-05-20T16:23:10.655Z,2.38
2023-05-20T16:25:38.437Z,2.23
2023-05-20T16:28:06.243Z,2.28
2023-05-20T16:30:35.992Z,2.15
2023-05-20T16:33:04.160Z,2.25
2023-05-20T16:35:31.999Z,2.10
2023-05-20T16:37:59.848Z,2.00
2023-05-20T16:40:29.135Z,2.47
2023-05-20T16:42:56.957Z,2.60
2023-05-20T16:45:24.767Z,2.33
2023-05-20T16:47:52.913Z,2.30
2023-05-20T16:50:20.957Z,2.30
2023-05-20T16:52:48.959Z,2.25
2023-05-20T16:55:17.218Z,1.88
2023-05-20T16:57:47.878Z,2.60
2023-05-20T17:00:16.261Z,2.30
2023-05-20T17:02:44.146Z,2.30
2023-05-20T17:05:12.573Z,2.70
2023-05-20T17:07:41.071Z,2.40
2023-05-20T17:10:09.381Z,2.47
2023-05-20T17:12:37.164Z,2.20
2023-05-20T17:15:07.629Z,2.97
2023-05-20T17:17:35.578Z,3.25
2023-05-20T17:20:03.771Z,2.60
2023-05-20T17:22:31.533Z,2.78
2023-05-20T17:24:59.352Z,2.85
2023-05-20T17:27:29.900Z,2.80
2023-05-20T17:29:58.589Z,2.33
2023-05-20T17:32:27.999Z,2.50
2023-05-20T17:34:55.852Z,2.75
2023-05-20T17:37:23.652Z,2.78
2023-05-20T17:39:51.431Z,2.80
2023-05-20T17:42:19.220Z,2.80
2023-05-20T17:44:47.140Z,2.83
2023-05-20T17:47:14.963Z,2.50
2023-05-20T17:49:44.854Z,2.67
2023-05-20T17:52:12.607Z,2.50
2023-05-20T17:54:40.398Z,2.83
2023-05-20T17:57:08.261Z,2.70
2023-05-20T17:59:36.827Z,2.55
2023-05-20T18:02:06.254Z,2.80
2023-05-20T18:04:34.239Z,2.60
2023-05-20T18:07:04.524Z,2.30
2023-05-20T18:09:32.348Z,2.58
2023-05-20T18:12:00.651Z,2.50
2023-05-20T18:14:28.505Z,2.50
2023-05-20T18:16:57.330Z,2.30
2023-05-20T18:19:25.622Z,2.60
2023-05-20T18:21:53.395Z,2.00
2023-05-20T18:24:22.526Z,2.20
2023-05-20T18:26:50.589Z,2.50
2023-05-20T18:29:18.353Z,2.20
2023-05-20T18:31:46.150Z,2.10
2023-05-20T18:34:16.231Z,2.10
2023-05-20T18:36:44.140Z,1.85
2023-05-20T18:39:14.037Z,1.70
2023-05-20T18:41:47.232Z,1.90
2023-05-20T18:44:15.617Z,1.73
2023-05-20T18:46:43.704Z,1.80
2023-05-20T18:49:11.719Z,1.95
2023-05-20T18:51:39.521Z,1.80
2023-05-20T18:54:07.438Z,2.13
2023-05-20T18:56:35.957Z,2.00
2023-05-20T18:59:05.253Z,1.52
2023-05-20T19:01:33.869Z,2.20
2023-05-20T19:04:01.934Z,2.00
2023-05-20T19:06:29.732Z,2.30
2023-05-20T19:08:57.749Z,2.10
2023-05-20T19:11:25.656Z,1.90
2023-05-20T19:13:53.446Z,2.08
2023-05-20T19:16:22.960Z,1.95
2023-05-20T19:18:51.151Z,2.10
2023-05-20T19:21:19.269Z,2.22
2023-05-20T19:23:47.063Z,2.10
2023-05-20T19:26:14.850Z,2.25
2023-05-20T19:28:42.735Z,2.00
2023-05-20T19:31:10.645Z,2.00
2023-05-20T19:33:40.259Z,2.35
2023-05-20T19:36:08.054Z,1.92
2023-05-20T19:38:36.044Z,2.30
2023-05-20T19:41:03.964Z,1.95
2023-05-20T19:43:31.987Z,2.20
2023-05-20T19:46:00.557Z,1.90
2023-05-20T19:48:28.385Z,2.22
2023-05-20T19:50:57.722Z,1.90
2023-05-20T19:53:25.488Z,1.75
2023-05-20T19:55:53.354Z,2.17
2023-05-20T19:58:22.298Z,2.20
2023-05-20T20:00:50.176Z,2.20
2023-05-20T20:03:18.085Z,2.08
2023-05-20T20:05:46.139Z,1.73
2023-05-20T20:08:15.226Z,2.10
2023-05-20T20:10:43.113Z,1.90
2023-05-20T20:13:10.900Z,2.05
2023-05-20T20:15:40.103Z,1.95
2023-05-20T20:18:08.085Z,2.10
2023-05-20T20:20:40.136Z,2.00
2023-05-20T20:23:08.318Z,2.00
2023-05-20T20:25:38.810Z,1.83
2023-05-20T20:28:06.792Z,2.33
2023-05-20T20:30:35.138Z,1.90
2023-05-20T20:33:05.047Z,2.03
2023-05-20T20:35:33.116Z,2.00
2023-05-20T20:38:01.492Z,1.92
2023-05-20T20:40:29.423Z,2.00
2023-05-20T20:42:58.633Z,1.95
2023-05-20T20:45:26.394Z,2.43
2023-05-20T20:47:54.748Z,2.13
2023-05-20T20:50:22.902Z,2.70
2023-05-20T20:52:50.859Z,1.83
2023-05-20T20:55:18.733Z,2.10
2023-05-20T20:57:46.533Z,2.83
2023-05-20T21:00:17.414Z,2.10
2023-05-20T21:02:45.252Z,2.10
2023-05-20T21:05:14.448Z,2.20
2023-05-20T21:07:44.569Z,2.70
2023-05-20T21:10:12.478Z,2.60
2023-05-20T21:12:40.359Z,1.95
2023-05-20T21:15:09.964Z,2.58
2023-05-20T21:17:39.128Z,2.22
2023-05-20T21:20:08.268Z,2.45
2023-05-20T21:22:35.936Z,2.10
2023-05-20T21:25:03.686Z,2.28
2023-05-20T21:27:31.447Z,2.30
2023-05-20T21:29:59.356Z,2.30
2023-05-20T21:32:27.191Z,2.08
2023-05-20T21:34:58.229Z,2.30
2023-05-20T21:37:26.277Z,2.30
2023-05-20T21:39:54.040Z,2.60
2023-05-20T21:42:21.901Z,2.00
2023-05-20T21:44:49.749Z,2.08
2023-05-20T21:47:17.524Z,2.73
2023-05-20T21:49:45.294Z,2.50
2023-05-20T21:52:14.511Z,3.10
2023-05-20T21:54:42.478Z,2.42
2023-05-20T21:57:10.370Z,2.45
2023-05-20T21:59:38.157Z,2.43
2023-05-20T22:02:07.331Z,3.42
2023-05-20T22:04:35.110Z,2.95
2023-05-20T22:07:03.083Z,2.58
2023-05-20T22:09:32.362Z,2.67
2023-05-20T22:12:01.258Z,2.47
2023-05-20T22:14:29.549Z,2.78
2023-05-20T22:16:58.588Z,2.58
2023-05-20T22:19:26.761Z,2.28
2023-05-20T22:21:54.693Z,2.80
2023-05-20T22:24:22.569Z,2.57
2023-05-20T22:26:52.589Z,2.40
2023-05-20T22:29:20.450Z,2.85
2023-05-20T22:31:48.234Z,2.50
2023-05-20T22:34:16.424Z,2.95
2023-05-20T22:36:45.239Z,2.70
2023-05-20T22:39:13.244Z,2.70
2023-05-20T22:41:41.064Z,3.08
2023-05-20T22:44:10.161Z,2.53
2023-05-20T22:46:37.933Z,2.95
2023-05-20T22:49:05.681Z,2.63
2023-05-20T22:51:35.042Z,2.97
2023-05-20T22:54:03.211Z,2.83
2023-05-20T22:56:32.553Z,3.25
2023-05-20T22:59:00.558Z,2.53
2023-05-20T23:01:29.768Z,3.10
2023-05-20T23:03:57.707Z,3.40
2023-05-20T23:06:25.497Z,3.00
2023-05-20T23:08:53.374Z,2.78
2023-05-20T23:11:21.508Z,3.10
2023-05-20T23:13:49.545Z,2.80
2023-05-20T23:16:17.629Z,3.22
2023-05-20T23:18:47.505Z,3.17
2023-05-20T23:21:15.383Z,3.40
2023-05-20T23:23:43.260Z,3.30
2023-05-20T23:26:10.998Z,3.23
2023-05-20T23:28:38.828Z,3.08
2023-05-20T23:31:06.778Z,3.30
2023-05-20T23:33:34.667Z,3.22
2023-05-20T23:36:03.905Z,3.35
2023-05-20T23:38:32.136Z,3.30
2023-05-20T23:40:59.993Z,3.50
2023-05-20T23:43:27.754Z,3.40
2023-05-20T23:45:55.527Z,4.07
2023-05-20T23:48:23.368Z,3.20
2023-05-20T23:50:51.418Z,3.40
2023-05-20T23:53:21.135Z,3.22
2023-05-20T23:55:49.757Z,3.47
2023-05-20T23:58:17.671Z,3.20
